sensor_id;sensor_type;location;lat;lon;timestamp;P1;durP1;ratioP1;P2;durP2;ratioP2
12774;SDS011;6451;42.630;23.382;2023-02-15T00:00:04;35.77;;;24.67;;
12774;SDS011;6451;42.630;23.382;2023-02-15T00:02:33;38.53;;;27.10;;
12774;SDS011;6451;42.630;23.382;2023-02-15T00:05:00;41.70;;;28.17;;
12774;SDS011;6451;42.630;23.382;2023-02-15T00:07:27;36.87;;;25.10;;
12774;SDS011;6451;42.630;23.382;2023-02-15T00:09:53;43.40;;;29.47;;
12774;SDS011;6451;42.630;23.382;2023-02-15T00:12:21;39.70;;;27.40;;
12774;SDS011;6451;42.630;23.382;2023-02-15T00:14:50;38.80;;;27.83;;
12774;SDS011;6451;42.630;23.382;2023-02-15T00:17:18;41.30;;;27.67;;
12774;SDS011;6451;42.630;23.382;2023-02-15T00:19:46;41.90;;;28.80;;
12774;SDS011;6451;42.630;23.382;2023-02-15T00:22:13;41.57;;;28.40;;
12774;SDS011;6451;42.630;23.382;2023-02-15T00:24:40;36.43;;;24.20;;
12774;SDS011;6451;42.630;23.382;2023-02-15T00:27:06;36.53;;;24.07;;
12774;SDS011;6451;42.630;23.382;2023-02-15T00:29:34;40.70;;;27.03;;
12774;SDS011;6451;42.630;23.382;2023-02-15T00:32:04;41.63;;;26.87;;
12774;SDS011;6451;42.630;23.382;2023-02-15T00:34:31;37.73;;;26.80;;
12774;SDS011;6451;42.630;23.382;2023-02-15T00:36:58;43.23;;;27.90;;
12774;SDS011;6451;42.630;23.382;2023-02-15T00:39:25;39.57;;;28.03;;
12774;SDS011;6451;42.630;23.382;2023-02-15T00:41:52;39.27;;;27.87;;
12774;SDS011;6451;42.630;23.382;2023-02-15T00:44:19;40.80;;;27.17;;
12774;SDS011;6451;42.630;23.382;2023-02-15T00:46:46;38.13;;;26.70;;
12774;SDS011;6451;42.630;23.382;2023-02-15T00:49:14;41.70;;;27.67;;
12774;SDS011;6451;42.630;23.382;2023-02-15T00:51:41;38.77;;;26.73;;
12774;SDS011;6451;42.630;23.382;2023-02-15T00:54:08;45.63;;;30.40;;
12774;SDS011;6451;42.630;23.382;2023-02-15T00:56:34;42.60;;;29.27;;
12774;SDS011;6451;42.630;23.382;2023-02-15T00:59:02;35.17;;;25.20;;
12774;SDS011;6451;42.630;23.382;2023-02-15T01:01:28;36.23;;;25.47;;
12774;SDS011;6451;42.630;23.382;2023-02-15T01:03:56;34.90;;;23.37;;
12774;SDS011;6451;42.630;23.382;2023-02-15T01:06:24;38.17;;;27.37;;
12774;SDS011;6451;42.630;23.382;2023-02-15T01:08:52;38.23;;;26.87;;
12774;SDS011;6451;42.630;23.382;2023-02-15T01:11:21;39.33;;;23.97;;
12774;SDS011;6451;42.630;23.382;2023-02-15T01:13:50;39.10;;;25.90;;
12774;SDS011;6451;42.630;23.382;2023-02-15T01:16:17;38.67;;;27.13;;
12774;SDS011;6451;42.630;23.382;2023-02-15T01:18:45;33.23;;;23.40;;
12774;SDS011;6451;42.630;23.382;2023-02-15T01:21:12;35.27;;;25.80;;
12774;SDS011;6451;42.630;23.382;2023-02-15T01:23:41;41.10;;;27.80;;
12774;SDS011;6451;42.630;23.382;2023-02-15T01:26:09;37.20;;;24.30;;
12774;SDS011;6451;42.630;23.382;2023-02-15T01:28:36;38.90;;;25.57;;
12774;SDS011;6451;42.630;23.382;2023-02-15T01:31:04;39.53;;;26.87;;
12774;SDS011;6451;42.630;23.382;2023-02-15T01:33:32;36.57;;;26.43;;
12774;SDS011;6451;42.630;23.382;2023-02-15T01:36:00;37.53;;;25.43;;
12774;SDS011;6451;42.630;23.382;2023-02-15T01:38:28;35.43;;;26.03;;
12774;SDS011;6451;42.630;23.382;2023-02-15T01:40:56;39.37;;;27.33;;
12774;SDS011;6451;42.630;23.382;2023-02-15T01:43:45;38.87;;;26.73;;
12774;SDS011;6451;42.630;23.382;2023-02-15T01:46:14;39.73;;;26.70;;
12774;SDS011;6451;42.630;23.382;2023-02-15T01:48:44;36.63;;;25.20;;
12774;SDS011;6451;42.630;23.382;2023-02-15T01:51:13;37.47;;;26.47;;
12774;SDS011;6451;42.630;23.382;2023-02-15T01:53:45;38.43;;;25.60;;
12774;SDS011;6451;42.630;23.382;2023-02-15T01:56:19;37.30;;;26.43;;
12774;SDS011;6451;42.630;23.382;2023-02-15T01:58:48;37.87;;;25.50;;
12774;SDS011;6451;42.630;23.382;2023-02-15T02:01:17;40.40;;;27.13;;
12774;SDS011;6451;42.630;23.382;2023-02-15T02:03:49;37.97;;;26.03;;
12774;SDS011;6451;42.630;23.382;2023-02-15T02:06:23;38.43;;;25.97;;
12774;SDS011;6451;42.630;23.382;2023-02-15T02:08:52;39.60;;;26.97;;
12774;SDS011;6451;42.630;23.382;2023-02-15T02:11:21;40.20;;;26.67;;
12774;SDS011;6451;42.630;23.382;2023-02-15T02:13:49;37.80;;;26.07;;
12774;SDS011;6451;42.630;23.382;2023-02-15T02:16:20;36.53;;;26.60;;
12774;SDS011;6451;42.630;23.382;2023-02-15T02:21:59;38.47;;;26.30;;
12774;SDS011;6451;42.630;23.382;2023-02-15T02:25:04;38.70;;;25.90;;
12774;SDS011;6451;42.630;23.382;2023-02-15T02:27:46;37.53;;;26.10;;
12774;SDS011;6451;42.630;23.382;2023-02-15T02:33:29;32.70;;;22.53;;
12774;SDS011;6451;42.630;23.382;2023-02-15T02:36:14;35.87;;;23.40;;
12774;SDS011;6451;42.630;23.382;2023-02-15T02:38:51;38.07;;;26.17;;
12774;SDS011;6451;42.630;23.382;2023-02-15T02:41:26;33.33;;;24.07;;
12774;SDS011;6451;42.630;23.382;2023-02-15T02:43:59;35.03;;;24.50;;
12774;SDS011;6451;42.630;23.382;2023-02-15T02:46:35;36.23;;;24.43;;
12774;SDS011;6451;42.630;23.382;2023-02-15T02:49:10;35.27;;;24.40;;
12774;SDS011;6451;42.630;23.382;2023-02-15T02:51:37;34.30;;;24.87;;
12774;SDS011;6451;42.630;23.382;2023-02-15T02:54:05;35.93;;;24.47;;
12774;SDS011;6451;42.630;23.382;2023-02-15T02:56:33;34.43;;;23.70;;
12774;SDS011;6451;42.630;23.382;2023-02-15T02:59:05;36.00;;;24.73;;
12774;SDS011;6451;42.630;23.382;2023-02-15T03:01:37;34.60;;;23.83;;
12774;SDS011;6451;42.630;23.382;2023-02-15T03:04:09;37.17;;;24.53;;
12774;SDS011;6451;42.630;23.382;2023-02-15T03:06:41;32.90;;;23.13;;
12774;SDS011;6451;42.630;23.382;2023-02-15T03:09:14;34.97;;;23.17;;
12774;SDS011;6451;42.630;23.382;2023-02-15T03:11:47;33.70;;;21.87;;
12774;SDS011;6451;42.630;23.382;2023-02-15T03:14:15;34.17;;;23.67;;
12774;SDS011;6451;42.630;23.382;2023-02-15T03:16:45;33.73;;;24.23;;
12774;SDS011;6451;42.630;23.382;2023-02-15T03:19:17;28.77;;;20.40;;
12774;SDS011;6451;42.630;23.382;2023-02-15T03:21:49;33.27;;;22.63;;
12774;SDS011;6451;42.630;23.382;2023-02-15T03:24:30;34.13;;;23.70;;
12774;SDS011;6451;42.630;23.382;2023-02-15T03:27:00;32.43;;;22.63;;
12774;SDS011;6451;42.630;23.382;2023-02-15T03:29:31;33.07;;;22.37;;
12774;SDS011;6451;42.630;23.382;2023-02-15T03:31:59;31.63;;;22.90;;
12774;SDS011;6451;42.630;23.382;2023-02-15T03:34:30;30.27;;;22.30;;
12774;SDS011;6451;42.630;23.382;2023-02-15T03:37:00;32.37;;;23.13;;
12774;SDS011;6451;42.630;23.382;2023-02-15T03:39:35;31.23;;;21.90;;
12774;SDS011;6451;42.630;23.382;2023-02-15T03:42:09;31.47;;;22.30;;
12774;SDS011;6451;42.630;23.382;2023-02-15T03:44:43;31.80;;;20.80;;
12774;SDS011;6451;42.630;23.382;2023-02-15T03:47:17;31.30;;;22.20;;
12774;SDS011;6451;42.630;23.382;2023-02-15T03:49:50;31.73;;;21.97;;
12774;SDS011;6451;42.630;23.382;2023-02-15T03:52:21;29.43;;;21.83;;
12774;SDS011;6451;42.630;23.382;2023-02-15T03:54:51;34.03;;;23.17;;
12774;SDS011;6451;42.630;23.382;2023-02-15T03:57:19;30.97;;;21.63;;
12774;SDS011;6451;42.630;23.382;2023-02-15T04:00:09;35.63;;;23.13;;
12774;SDS011;6451;42.630;23.382;2023-02-15T04:05:51;27.73;;;21.07;;
12774;SDS011;6451;42.630;23.382;2023-02-15T04:08:18;30.97;;;22.40;;
12774;SDS011;6451;42.630;23.382;2023-02-15T04:10:47;31.23;;;22.10;;
12774;SDS011;6451;42.630;23.382;2023-02-15T04:13:20;30.53;;;22.87;;
12774;SDS011;6451;42.630;23.382;2023-02-15T04:15:49;30.90;;;21.30;;
12774;SDS011;6451;42.630;23.382;2023-02-15T04:18:31;31.40;;;21.70;;
12774;SDS011;6451;42.630;23.382;2023-02-15T04:21:18;33.07;;;22.20;;
12774;SDS011;6451;42.630;23.382;2023-02-15T04:24:04;32.23;;;22.23;;
12774;SDS011;6451;42.630;23.382;2023-02-15T04:26:49;29.93;;;19.77;;
12774;SDS011;6451;42.630;23.382;2023-02-15T04:29:18;32.40;;;22.73;;
12774;SDS011;6451;42.630;23.382;2023-02-15T04:31:45;31.83;;;22.67;;
12774;SDS011;6451;42.630;23.382;2023-02-15T04:34:12;28.67;;;21.13;;
12774;SDS011;6451;42.630;23.382;2023-02-15T04:36:40;30.97;;;22.30;;
12774;SDS011;6451;42.630;23.382;2023-02-15T04:39:07;31.47;;;22.00;;
12774;SDS011;6451;42.630;23.382;2023-02-15T04:41:35;32.73;;;23.07;;
12774;SDS011;6451;42.630;23.382;2023-02-15T04:44:02;30.87;;;22.70;;
12774;SDS011;6451;42.630;23.382;2023-02-15T04:46:29;30.90;;;22.17;;
12774;SDS011;6451;42.630;23.382;2023-02-15T04:48:55;30.10;;;21.00;;
12774;SDS011;6451;42.630;23.382;2023-02-15T04:51:22;31.60;;;22.93;;
12774;SDS011;6451;42.630;23.382;2023-02-15T04:53:53;32.43;;;25.03;;
12774;SDS011;6451;42.630;23.382;2023-02-15T04:56:21;31.57;;;22.33;;
12774;SDS011;6451;42.630;23.382;2023-02-15T04:58:48;32.30;;;22.10;;
12774;SDS011;6451;42.630;23.382;2023-02-15T05:01:15;31.93;;;23.70;;
12774;SDS011;6451;42.630;23.382;2023-02-15T05:03:42;31.13;;;22.63;;
12774;SDS011;6451;42.630;23.382;2023-02-15T05:06:08;33.77;;;23.23;;
12774;SDS011;6451;42.630;23.382;2023-02-15T05:08:35;31.53;;;22.47;;
12774;SDS011;6451;42.630;23.382;2023-02-15T05:11:04;33.60;;;23.60;;
12774;SDS011;6451;42.630;23.382;2023-02-15T05:13:30;33.87;;;21.93;;
12774;SDS011;6451;42.630;23.382;2023-02-15T05:15:57;35.33;;;23.63;;
12774;SDS011;6451;42.630;23.382;2023-02-15T05:18:24;32.33;;;21.90;;
12774;SDS011;6451;42.630;23.382;2023-02-15T05:20:51;32.97;;;22.27;;
12774;SDS011;6451;42.630;23.382;2023-02-15T05:23:18;31.73;;;22.83;;
12774;SDS011;6451;42.630;23.382;2023-02-15T05:25:48;30.30;;;19.63;;
12774;SDS011;6451;42.630;23.382;2023-02-15T05:28:35;32.13;;;20.93;;
12774;SDS011;6451;42.630;23.382;2023-02-15T05:31:05;32.17;;;23.23;;
12774;SDS011;6451;42.630;23.382;2023-02-15T05:33:34;31.60;;;22.63;;
12774;SDS011;6451;42.630;23.382;2023-02-15T05:36:01;31.53;;;22.53;;
12774;SDS011;6451;42.630;23.382;2023-02-15T05:38:28;32.67;;;22.80;;
12774;SDS011;6451;42.630;23.382;2023-02-15T05:40:55;31.50;;;22.27;;
12774;SDS011;6451;42.630;23.382;2023-02-15T05:43:22;34.27;;;21.30;;
12774;SDS011;6451;42.630;23.382;2023-02-15T05:45:52;35.53;;;24.40;;
12774;SDS011;6451;42.630;23.382;2023-02-15T05:48:20;31.37;;;22.20;;
12774;SDS011;6451;42.630;23.382;2023-02-15T05:50:56;34.23;;;23.60;;
12774;SDS011;6451;42.630;23.382;2023-02-15T05:53:24;34.43;;;23.47;;
12774;SDS011;6451;42.630;23.382;2023-02-15T05:55:52;36.43;;;24.70;;
12774;SDS011;6451;42.630;23.382;2023-02-15T05:58:25;33.10;;;23.23;;
12774;SDS011;6451;42.630;23.382;2023-02-15T06:00:54;31.13;;;21.73;;
12774;SDS011;6451;42.630;23.382;2023-02-15T06:03:21;32.73;;;22.87;;
12774;SDS011;6451;42.630;23.382;2023-02-15T06:05:49;31.90;;;21.63;;
12774;SDS011;6451;42.630;23.382;2023-02-15T06:08:16;33.53;;;22.83;;
12774;SDS011;6451;42.630;23.382;2023-02-15T06:10:44;31.60;;;21.50;;
12774;SDS011;6451;42.630;23.382;2023-02-15T06:13:12;31.33;;;21.50;;
12774;SDS011;6451;42.630;23.382;2023-02-15T06:15:39;32.63;;;22.80;;
12774;SDS011;6451;42.630;23.382;2023-02-15T06:18:07;31.03;;;22.83;;
12774;SDS011;6451;42.630;23.382;2023-02-15T06:20:35;28.73;;;21.13;;
12774;SDS011;6451;42.630;23.382;2023-02-15T06:23:02;34.07;;;22.43;;
12774;SDS011;6451;42.630;23.382;2023-02-15T06:25:30;30.60;;;21.73;;
12774;SDS011;6451;42.630;23.382;2023-02-15T06:28:06;29.27;;;21.20;;
12774;SDS011;6451;42.630;23.382;2023-02-15T06:30:37;31.90;;;22.13;;
12774;SDS011;6451;42.630;23.382;2023-02-15T06:33:04;29.17;;;20.20;;
12774;SDS011;6451;42.630;23.382;2023-02-15T06:35:36;29.83;;;20.80;;
12774;SDS011;6451;42.630;23.382;2023-02-15T06:38:03;30.87;;;20.77;;
12774;SDS011;6451;42.630;23.382;2023-02-15T06:40:30;29.20;;;19.83;;
12774;SDS011;6451;42.630;23.382;2023-02-15T06:42:58;29.33;;;20.17;;
12774;SDS011;6451;42.630;23.382;2023-02-15T06:45:27;29.20;;;19.90;;
12774;SDS011;6451;42.630;23.382;2023-02-15T06:47:54;32.10;;;20.90;;
12774;SDS011;6451;42.630;23.382;2023-02-15T06:50:21;35.93;;;25.70;;
12774;SDS011;6451;42.630;23.382;2023-02-15T06:52:52;34.37;;;23.13;;
12774;SDS011;6451;42.630;23.382;2023-02-15T06:55:25;28.47;;;20.50;;
12774;SDS011;6451;42.630;23.382;2023-02-15T06:57:53;27.67;;;20.00;;
12774;SDS011;6451;42.630;23.382;2023-02-15T07:00:20;29.83;;;20.77;;
12774;SDS011;6451;42.630;23.382;2023-02-15T07:02:49;23.93;;;18.03;;
12774;SDS011;6451;42.630;23.382;2023-02-15T07:05:23;25.30;;;18.90;;
12774;SDS011;6451;42.630;23.382;2023-02-15T07:07:57;26.43;;;18.40;;
12774;SDS011;6451;42.630;23.382;2023-02-15T07:10:25;24.07;;;17.57;;
12774;SDS011;6451;42.630;23.382;2023-02-15T07:12:52;21.33;;;16.30;;
12774;SDS011;6451;42.630;23.382;2023-02-15T07:15:18;25.67;;;18.97;;
12774;SDS011;6451;42.630;23.382;2023-02-15T07:17:48;26.13;;;18.53;;
12774;SDS011;6451;42.630;23.382;2023-02-15T07:20:16;24.93;;;19.17;;
12774;SDS011;6451;42.630;23.382;2023-02-15T07:22:45;24.27;;;17.47;;
12774;SDS011;6451;42.630;23.382;2023-02-15T07:25:13;26.63;;;18.07;;
12774;SDS011;6451;42.630;23.382;2023-02-15T07:27:41;25.07;;;18.93;;
12774;SDS011;6451;42.630;23.382;2023-02-15T07:30:10;24.33;;;17.37;;
12774;SDS011;6451;42.630;23.382;2023-02-15T07:32:39;23.17;;;16.53;;
12774;SDS011;6451;42.630;23.382;2023-02-15T07:35:26;24.20;;;16.97;;
12774;SDS011;6451;42.630;23.382;2023-02-15T07:37:54;24.33;;;16.57;;
12774;SDS011;6451;42.630;23.382;2023-02-15T07:40:22;23.37;;;16.30;;
12774;SDS011;6451;42.630;23.382;2023-02-15T07:42:50;22.93;;;17.23;;
12774;SDS011;6451;42.630;23.382;2023-02-15T07:45:19;24.90;;;17.50;;
12774;SDS011;6451;42.630;23.382;2023-02-15T07:47:47;21.00;;;15.33;;
12774;SDS011;6451;42.630;23.382;2023-02-15T07:50:14;22.17;;;16.23;;
12774;SDS011;6451;42.630;23.382;2023-02-15T07:52:41;24.97;;;17.40;;
12774;SDS011;6451;42.630;23.382;2023-02-15T07:55:09;23.37;;;15.93;;
12774;SDS011;6451;42.630;23.382;2023-02-15T07:57:42;24.40;;;17.27;;
12774;SDS011;6451;42.630;23.382;2023-02-15T08:00:11;24.57;;;18.27;;
12774;SDS011;6451;42.630;23.382;2023-02-15T08:02:39;19.90;;;14.77;;
12774;SDS011;6451;42.630;23.382;2023-02-15T08:05:06;21.10;;;14.70;;
12774;SDS011;6451;42.630;23.382;2023-02-15T08:07:34;19.13;;;15.27;;
12774;SDS011;6451;42.630;23.382;2023-02-15T08:10:01;22.40;;;15.53;;
12774;SDS011;6451;42.630;23.382;2023-02-15T08:12:28;23.33;;;16.40;;
12774;SDS011;6451;42.630;23.382;2023-02-15T08:14:57;20.83;;;15.70;;
12774;SDS011;6451;42.630;23.382;2023-02-15T08:17:23;22.70;;;16.53;;
12774;SDS011;6451;42.630;23.382;2023-02-15T08:19:50;26.47;;;16.07;;
12774;SDS011;6451;42.630;23.382;2023-02-15T08:22:17;21.30;;;16.27;;
12774;SDS011;6451;42.630;23.382;2023-02-15T08:24:44;21.80;;;16.03;;
12774;SDS011;6451;42.630;23.382;2023-02-15T08:27:12;23.47;;;16.03;;
12774;SDS011;6451;42.630;23.382;2023-02-15T08:29:39;20.43;;;15.53;;
12774;SDS011;6451;42.630;23.382;2023-02-15T08:32:09;20.53;;;14.40;;
12774;SDS011;6451;42.630;23.382;2023-02-15T08:34:41;26.10;;;16.60;;
12774;SDS011;6451;42.630;23.382;2023-02-15T08:37:08;23.47;;;15.33;;
12774;SDS011;6451;42.630;23.382;2023-02-15T08:39:35;20.67;;;15.40;;
12774;SDS011;6451;42.630;23.382;2023-02-15T08:42:02;22.47;;;16.50;;
12774;SDS011;6451;42.630;23.382;2023-02-15T08:44:29;19.23;;;14.17;;
12774;SDS011;6451;42.630;23.382;2023-02-15T08:46:56;21.90;;;16.03;;
12774;SDS011;6451;42.630;23.382;2023-02-15T08:49:30;19.53;;;14.07;;
12774;SDS011;6451;42.630;23.382;2023-02-15T08:52:00;25.80;;;16.20;;
12774;SDS011;6451;42.630;23.382;2023-02-15T08:54:27;23.70;;;16.47;;
12774;SDS011;6451;42.630;23.382;2023-02-15T08:56:54;20.67;;;15.77;;
12774;SDS011;6451;42.630;23.382;2023-02-15T08:59:22;20.13;;;16.33;;
12774;SDS011;6451;42.630;23.382;2023-02-15T09:01:52;23.80;;;16.93;;
12774;SDS011;6451;42.630;23.382;2023-02-15T09:04:20;24.10;;;17.33;;
12774;SDS011;6451;42.630;23.382;2023-02-15T09:06:49;21.67;;;16.73;;
12774;SDS011;6451;42.630;23.382;2023-02-15T09:09:21;25.63;;;18.07;;
12774;SDS011;6451;42.630;23.382;2023-02-15T09:11:49;23.90;;;17.27;;
12774;SDS011;6451;42.630;23.382;2023-02-15T09:14:18;22.97;;;15.43;;
12774;SDS011;6451;42.630;23.382;2023-02-15T09:16:47;21.00;;;14.30;;
12774;SDS011;6451;42.630;23.382;2023-02-15T09:19:20;20.27;;;15.37;;
12774;SDS011;6451;42.630;23.382;2023-02-15T09:21:50;21.47;;;16.50;;
12774;SDS011;6451;42.630;23.382;2023-02-15T09:24:17;17.97;;;13.17;;
12774;SDS011;6451;42.630;23.382;2023-02-15T09:26:44;20.90;;;15.57;;
12774;SDS011;6451;42.630;23.382;2023-02-15T09:29:12;21.97;;;12.47;;
12774;SDS011;6451;42.630;23.382;2023-02-15T09:31:41;21.37;;;15.00;;
12774;SDS011;6451;42.630;23.382;2023-02-15T09:34:10;22.47;;;15.33;;
12774;SDS011;6451;42.630;23.382;2023-02-15T09:36:38;19.07;;;14.90;;
12774;SDS011;6451;42.630;23.382;2023-02-15T09:39:08;19.67;;;15.23;;
12774;SDS011;6451;42.630;23.382;2023-02-15T09:44:42;21.53;;;15.30;;
12774;SDS011;6451;42.630;23.382;2023-02-15T09:47:26;20.20;;;15.43;;
12774;SDS011;6451;42.630;23.382;2023-02-15T09:50:11;21.27;;;15.57;;
12774;SDS011;6451;42.630;23.382;2023-02-15T09:52:49;21.73;;;16.63;;
12774;SDS011;6451;42.630;23.382;2023-02-15T09:55:35;23.43;;;17.07;;
12774;SDS011;6451;42.630;23.382;2023-02-15T09:58:12;23.80;;;15.60;;
12774;SDS011;6451;42.630;23.382;2023-02-15T10:00:47;21.77;;;15.37;;
12774;SDS011;6451;42.630;23.382;2023-02-15T10:03:23;23.23;;;16.57;;
12774;SDS011;6451;42.630;23.382;2023-02-15T10:06:05;21.00;;;15.53;;
12774;SDS011;6451;42.630;23.382;2023-02-15T10:11:54;27.17;;;18.03;;
12774;SDS011;6451;42.630;23.382;2023-02-15T10:14:37;25.10;;;17.83;;
12774;SDS011;6451;42.630;23.382;2023-02-15T10:17:20;23.33;;;17.03;;
12774;SDS011;6451;42.630;23.382;2023-02-15T10:20:05;23.90;;;18.13;;
12774;SDS011;6451;42.630;23.382;2023-02-15T10:22:46;19.63;;;15.00;;
12774;SDS011;6451;42.630;23.382;2023-02-15T10:25:28;23.47;;;16.77;;
12774;SDS011;6451;42.630;23.382;2023-02-15T10:28:09;22.97;;;17.30;;
12774;SDS011;6451;42.630;23.382;2023-02-15T10:30:43;24.83;;;18.57;;
12774;SDS011;6451;42.630;23.382;2023-02-15T10:33:14;22.60;;;18.40;;
12774;SDS011;6451;42.630;23.382;2023-02-15T10:35:53;26.93;;;18.43;;
12774;SDS011;6451;42.630;23.382;2023-02-15T10:38:31;24.87;;;17.17;;
12774;SDS011;6451;42.630;23.382;2023-02-15T10:41:12;24.17;;;16.23;;
12774;SDS011;6451;42.630;23.382;2023-02-15T10:44:00;27.23;;;17.80;;
12774;SDS011;6451;42.630;23.382;2023-02-15T10:46:47;25.53;;;18.20;;
12774;SDS011;6451;42.630;23.382;2023-02-15T10:49:38;25.03;;;18.07;;
12774;SDS011;6451;42.630;23.382;2023-02-15T10:52:19;21.90;;;16.27;;
12774;SDS011;6451;42.630;23.382;2023-02-15T10:54:57;21.83;;;17.00;;
12774;SDS011;6451;42.630;23.382;2023-02-15T10:57:37;20.50;;;15.53;;
12774;SDS011;6451;42.630;23.382;2023-02-15T11:00:22;21.57;;;16.60;;
12774;SDS011;6451;42.630;23.382;2023-02-15T11:03:09;20.80;;;16.07;;
12774;SDS011;6451;42.630;23.382;2023-02-15T11:06:04;22.87;;;17.17;;
12774;SDS011;6451;42.630;23.382;2023-02-15T11:08:43;23.13;;;16.53;;
12774;SDS011;6451;42.630;23.382;2023-02-15T11:11:22;21.83;;;17.40;;
12774;SDS011;6451;42.630;23.382;2023-02-15T11:14:22;22.43;;;17.07;;
12774;SDS011;6451;42.630;23.382;2023-02-15T11:17:06;27.07;;;19.67;;
12774;SDS011;6451;42.630;23.382;2023-02-15T11:19:50;25.63;;;18.77;;
12774;SDS011;6451;42.630;23.382;2023-02-15T11:22:33;27.23;;;18.33;;
12774;SDS011;6451;42.630;23.382;2023-02-15T11:25:14;28.80;;;18.33;;
12774;SDS011;6451;42.630;23.382;2023-02-15T11:27:46;23.13;;;18.10;;
12774;SDS011;6451;42.630;23.382;2023-02-15T11:30:23;25.10;;;18.43;;
12774;SDS011;6451;42.630;23.382;2023-02-15T11:33:26;24.90;;;19.00;;
12774;SDS011;6451;42.630;23.382;2023-02-15T11:36:27;21.70;;;17.10;;
12774;SDS011;6451;42.630;23.382;2023-02-15T11:39:15;22.43;;;18.17;;
12774;SDS011;6451;42.630;23.382;2023-02-15T11:41:46;25.23;;;18.20;;
12774;SDS011;6451;42.630;23.382;2023-02-15T11:44:25;25.90;;;19.27;;
12774;SDS011;6451;42.630;23.382;2023-02-15T11:47:01;23.80;;;18.57;;
12774;SDS011;6451;42.630;23.382;2023-02-15T11:49:31;24.03;;;17.13;;
12774;SDS011;6451;42.630;23.382;2023-02-15T11:52:15;26.23;;;17.97;;
12774;SDS011;6451;42.630;23.382;2023-02-15T11:54:51;24.97;;;18.57;;
12774;SDS011;6451;42.630;23.382;2023-02-15T11:57:43;24.93;;;18.33;;
12774;SDS011;6451;42.630;23.382;2023-02-15T12:00:32;27.77;;;18.90;;
12774;SDS011;6451;42.630;23.382;2023-02-15T12:03:05;22.27;;;17.47;;
12774;SDS011;6451;42.630;23.382;2023-02-15T12:05:53;24.23;;;18.57;;
12774;SDS011;6451;42.630;23.382;2023-02-15T12:08:32;24.30;;;18.43;;
12774;SDS011;6451;42.630;23.382;2023-02-15T12:11:06;24.07;;;18.40;;
12774;SDS011;6451;42.630;23.382;2023-02-15T12:13:39;23.63;;;18.57;;
12774;SDS011;6451;42.630;23.382;2023-02-15T12:16:21;24.93;;;18.43;;
12774;SDS011;6451;42.630;23.382;2023-02-15T12:18:52;25.50;;;17.97;;
12774;SDS011;6451;42.630;23.382;2023-02-15T12:21:40;25.50;;;18.17;;
12774;SDS011;6451;42.630;23.382;2023-02-15T12:24:19;24.90;;;18.83;;
12774;SDS011;6451;42.630;23.382;2023-02-15T12:27:01;23.20;;;17.87;;
12774;SDS011;6451;42.630;23.382;2023-02-15T12:29:35;24.00;;;19.07;;
12774;SDS011;6451;42.630;23.382;2023-02-15T12:32:25;26.27;;;20.87;;
12774;SDS011;6451;42.630;23.382;2023-02-15T12:35:18;28.40;;;20.27;;
12774;SDS011;6451;42.630;23.382;2023-02-15T12:37:59;29.23;;;20.70;;
12774;SDS011;6451;42.630;23.382;2023-02-15T12:40:30;27.47;;;20.77;;
12774;SDS011;6451;42.630;23.382;2023-02-15T12:43:00;28.27;;;20.07;;
12774;SDS011;6451;42.630;23.382;2023-02-15T12:45:34;26.97;;;20.03;;
12774;SDS011;6451;42.630;23.382;2023-02-15T12:50:46;27.00;;;20.87;;
12774;SDS011;6451;42.630;23.382;2023-02-15T12:53:21;23.60;;;18.73;;
12774;SDS011;6451;42.630;23.382;2023-02-15T12:55:55;26.97;;;20.27;;
12774;SDS011;6451;42.630;23.382;2023-02-15T12:58:24;25.80;;;19.30;;
12774;SDS011;6451;42.630;23.382;2023-02-15T13:01:04;25.90;;;19.43;;
12774;SDS011;6451;42.630;23.382;2023-02-15T13:03:38;26.50;;;19.63;;
12774;SDS011;6451;42.630;23.382;2023-02-15T13:06:20;25.27;;;20.03;;
12774;SDS011;6451;42.630;23.382;2023-02-15T13:08:50;26.10;;;20.47;;
12774;SDS011;6451;42.630;23.382;2023-02-15T13:11:21;26.93;;;19.87;;
12774;SDS011;6451;42.630;23.382;2023-02-15T13:13:55;25.40;;;19.77;;
12774;SDS011;6451;42.630;23.382;2023-02-15T13:16:26;29.53;;;22.07;;
12774;SDS011;6451;42.630;23.382;2023-02-15T13:18:57;26.80;;;20.57;;
12774;SDS011;6451;42.630;23.382;2023-02-15T13:21:32;24.33;;;17.33;;
12774;SDS011;6451;42.630;23.382;2023-02-15T13:24:06;24.57;;;19.73;;
12774;SDS011;6451;42.630;23.382;2023-02-15T13:26:49;28.63;;;21.00;;
12774;SDS011;6451;42.630;23.382;2023-02-15T13:29:18;26.93;;;20.77;;
12774;SDS011;6451;42.630;23.382;2023-02-15T13:31:51;27.20;;;20.57;;
12774;SDS011;6451;42.630;23.382;2023-02-15T13:34:22;26.27;;;20.03;;
12774;SDS011;6451;42.630;23.382;2023-02-15T13:36:54;30.13;;;21.43;;
12774;SDS011;6451;42.630;23.382;2023-02-15T13:39:31;23.03;;;19.57;;
12774;SDS011;6451;42.630;23.382;2023-02-15T13:42:12;26.47;;;20.83;;
12774;SDS011;6451;42.630;23.382;2023-02-15T13:44:53;28.90;;;21.03;;
12774;SDS011;6451;42.630;23.382;2023-02-15T13:47:34;26.73;;;19.97;;
12774;SDS011;6451;42.630;23.382;2023-02-15T13:50:17;28.53;;;19.93;;
12774;SDS011;6451;42.630;23.382;2023-02-15T13:52:56;27.60;;;20.87;;
12774;SDS011;6451;42.630;23.382;2023-02-15T13:55:40;26.07;;;20.77;;
12774;SDS011;6451;42.630;23.382;2023-02-15T13:58:31;27.57;;;20.47;;
12774;SDS011;6451;42.630;23.382;2023-02-15T14:01:24;27.33;;;20.77;;
12774;SDS011;6451;42.630;23.382;2023-02-15T14:04:10;26.17;;;19.70;;
12774;SDS011;6451;42.630;23.382;2023-02-15T14:07:00;25.23;;;20.17;;
12774;SDS011;6451;42.630;23.382;2023-02-15T14:09:39;25.73;;;19.40;;
12774;SDS011;6451;42.630;23.382;2023-02-15T14:12:27;27.47;;;20.47;;
12774;SDS011;6451;42.630;23.382;2023-02-15T14:15:21;26.20;;;20.00;;
12774;SDS011;6451;42.630;23.382;2023-02-15T14:18:21;27.53;;;20.13;;
12774;SDS011;6451;42.630;23.382;2023-02-15T14:21:04;25.40;;;20.17;;
12774;SDS011;6451;42.630;23.382;2023-02-15T14:23:40;30.23;;;21.23;;
12774;SDS011;6451;42.630;23.382;2023-02-15T14:26:16;32.63;;;22.27;;
12774;SDS011;6451;42.630;23.382;2023-02-15T14:28:51;29.03;;;21.27;;
12774;SDS011;6451;42.630;23.382;2023-02-15T14:31:29;28.00;;;20.90;;
12774;SDS011;6451;42.630;23.382;2023-02-15T14:34:03;31.80;;;22.63;;
12774;SDS011;6451;42.630;23.382;2023-02-15T14:36:31;29.90;;;20.57;;
12774;SDS011;6451;42.630;23.382;2023-02-15T14:39:02;28.50;;;20.90;;
12774;SDS011;6451;42.630;23.382;2023-02-15T14:41:57;27.63;;;22.17;;
12774;SDS011;6451;42.630;23.382;2023-02-15T14:44:30;26.73;;;20.17;;
12774;SDS011;6451;42.630;23.382;2023-02-15T14:47:11;30.17;;;21.67;;
12774;SDS011;6451;42.630;23.382;2023-02-15T14:53:38;29.67;;;21.20;;
12774;SDS011;6451;42.630;23.382;2023-02-15T14:56:21;28.87;;;20.67;;
12774;SDS011;6451;42.630;23.382;2023-02-15T14:58:55;30.40;;;21.83;;
12774;SDS011;6451;42.630;23.382;2023-02-15T15:01:38;30.37;;;22.57;;
12774;SDS011;6451;42.630;23.382;2023-02-15T15:04:22;27.53;;;22.00;;
12774;SDS011;6451;42.630;23.382;2023-02-15T15:06:57;29.63;;;22.33;;
12774;SDS011;6451;42.630;23.382;2023-02-15T15:09:29;30.13;;;23.20;;
12774;SDS011;6451;42.630;23.382;2023-02-15T15:12:12;31.00;;;23.93;;
12774;SDS011;6451;42.630;23.382;2023-02-15T15:15:01;31.23;;;23.17;;
12774;SDS011;6451;42.630;23.382;2023-02-15T15:20:40;33.43;;;21.83;;